createdAt,value
2019-04-19T00:02:07.763Z,4.07
2019-04-19T00:04:41.395Z,3.60
2019-04-19T00:07:17.587Z,3.47
2019-04-19T00:09:53.625Z,3.92
2019-04-19T00:12:29.051Z,4.70
2019-04-19T00:14:50.777Z,4.30
2019-04-19T00:17:28.032Z,3.78
2019-04-19T00:20:27.398Z,4.30
2019-04-19T00:22:49.937Z,4.05
2019-04-19T00:25:08.149Z,4.57
2019-04-19T00:27:46.703Z,4.53
2019-04-19T00:30:27.314Z,3.85
2019-04-19T00:33:05.499Z,4.75
2019-04-19T00:35:22.390Z,4.70
2019-04-19T00:38:02.671Z,4.80
2019-04-19T00:41:04.047Z,4.57
2019-04-19T00:43:49.413Z,4.90
2019-04-19T00:46:27.967Z,4.68
2019-04-19T00:48:54.300Z,5.05
2019-04-19T00:51:22.957Z,4.55
2019-04-19T00:54:00.031Z,4.53
2019-04-19T00:56:33.703Z,4.32
2019-04-19T00:59:00.927Z,4.95
2019-04-19T01:01:30.647Z,4.07
2019-04-19T01:04:05.310Z,3.90
2019-04-19T01:06:45.816Z,4.32
2019-04-19T01:09:26.723Z,4.20
2019-04-19T01:11:59.296Z,4.22
2019-04-19T01:14:31.249Z,4.37
2019-04-19T01:17:07.496Z,4.50
2019-04-19T01:28:33.614Z,4.45
2019-04-19T01:31:12.415Z,4.15
2019-04-19T01:33:42.422Z,3.60
2019-04-19T01:36:14.518Z,3.87
2019-04-19T01:38:54.312Z,3.70
2019-04-19T01:41:38.351Z,4.68
2019-04-19T01:44:16.526Z,4.37
2019-04-19T01:46:43.568Z,4.00
2019-04-19T01:49:19.430Z,5.40
2019-04-19T01:52:24.922Z,4.12
2019-04-19T01:54:49.928Z,4.40
2019-04-19T01:57:10.728Z,3.97
2019-04-19T01:59:46.702Z,3.72
2019-04-19T02:02:18.149Z,3.75
2019-04-19T02:04:47.799Z,3.95
2019-04-19T02:07:25.906Z,4.22
2019-04-19T02:10:12.478Z,4.37
2019-04-19T02:12:41.040Z,3.90
2019-04-19T02:15:07.878Z,3.50
2019-04-19T02:17:43.156Z,3.60
2019-04-19T02:20:11.875Z,5.55
2019-04-19T02:22:44.214Z,3.85
2019-04-19T02:25:21.769Z,4.20
2019-04-19T02:27:52.761Z,4.00
2019-04-19T02:30:33.931Z,4.12
2019-04-19T02:33:20.953Z,3.65
2019-04-19T02:36:00.633Z,3.95
2019-04-19T02:38:38.870Z,3.95
2019-04-19T02:41:13.981Z,4.15
2019-04-19T02:43:51.341Z,3.37
2019-04-19T02:46:25.047Z,3.70
2019-04-19T02:48:57.522Z,4.43
2019-04-19T02:51:25.940Z,4.50
2019-04-19T02:53:53.957Z,4.30
2019-04-19T02:59:33.140Z,4.37
2019-04-19T03:04:53.794Z,3.58
2019-04-19T03:06:58.293Z,3.70
2019-04-19T03:09:30.772Z,3.60
2019-04-19T03:12:24.544Z,3.85
2019-04-19T03:14:56.318Z,3.70
2019-04-19T03:17:23.259Z,4.25
2019-04-19T03:19:55.637Z,4.30
2019-04-19T03:22:29.473Z,3.65
2019-04-19T03:25:07.604Z,3.85
2019-04-19T03:27:28.293Z,3.87
2019-04-19T03:39:23.054Z,4.60
2019-04-19T03:42:02.370Z,4.15
2019-04-19T03:44:31.076Z,5.07
2019-04-19T03:47:12.376Z,3.53
2019-04-19T03:49:40.426Z,4.03
2019-04-19T03:52:14.636Z,4.00
2019-04-19T03:54:46.682Z,4.10
2019-04-19T04:06:19.636Z,4.50
2019-04-19T04:15:31.173Z,4.82
2019-04-19T04:17:52.867Z,4.55
2019-04-19T04:20:26.638Z,4.05
2019-04-19T04:23:06.925Z,3.78
2019-04-19T04:25:46.810Z,4.43
2019-04-19T04:28:23.491Z,4.82
2019-04-19T04:30:57.257Z,3.67
2019-04-19T04:33:31.352Z,3.40
2019-04-19T04:36:11.751Z,3.72
2019-04-19T04:38:30.314Z,3.78
2019-04-19T04:41:01.258Z,4.00
2019-04-19T04:43:41.665Z,4.68
2019-04-19T04:46:35.632Z,4.00
2019-04-19T04:49:23.709Z,5.10
2019-04-19T04:51:44.659Z,3.80
2019-04-19T04:54:01.983Z,4.55
2019-04-19T04:57:05.483Z,4.62
2019-04-19T04:59:30.081Z,5.07
2019-04-19T05:02:10.046Z,4.40
2019-04-19T05:04:49.641Z,4.25
2019-04-19T05:07:28.077Z,4.43
2019-04-19T05:10:02.803Z,3.95
2019-04-19T05:21:40.436Z,5.12
2019-04-19T05:24:22.099Z,4.78
2019-04-19T05:27:07.770Z,4.90
2019-04-19T05:29:17.537Z,4.53
2019-04-19T05:31:45.775Z,5.28
2019-04-19T05:34:33.436Z,4.25
2019-04-19T05:37:10.615Z,5.03
2019-04-19T05:39:48.682Z,3.80
2019-04-19T05:42:34.266Z,5.25
2019-04-19T05:45:29.903Z,4.70
2019-04-19T05:47:42.031Z,4.70
2019-04-19T05:50:25.633Z,5.03
2019-04-19T05:52:51.324Z,6.22
2019-04-19T05:55:08.722Z,5.65
2019-04-19T05:57:56.830Z,5.72
2019-04-19T06:00:30.585Z,6.15
2019-04-19T06:03:02.997Z,5.37
2019-04-19T06:05:55.160Z,6.22
2019-04-19T06:08:09.379Z,6.62
2019-04-19T06:10:38.091Z,6.30
2019-04-19T06:13:09.726Z,6.43
2019-04-19T06:16:04.175Z,6.12
2019-04-19T06:18:31.513Z,6.50
2019-04-19T06:21:17.235Z,5.57
2019-04-19T06:23:50.779Z,6.68
2019-04-19T06:29:01.814Z,6.70
2019-04-19T06:31:46.140Z,6.70
2019-04-19T06:33:57.977Z,5.55
2019-04-19T06:36:16.214Z,6.37
2019-04-19T06:38:48.892Z,7.53
2019-04-19T06:41:25.491Z,7.00
2019-04-19T06:44:08.886Z,6.60
2019-04-19T06:46:45.548Z,6.90
2019-04-19T06:49:12.821Z,6.75
2019-04-19T06:51:48.693Z,7.00
2019-04-19T06:54:14.120Z,6.32
2019-04-19T06:56:56.261Z,6.93
2019-04-19T06:59:38.161Z,6.25
2019-04-19T07:01:57.452Z,6.93
2019-04-19T07:04:27.811Z,6.15
2019-04-19T07:07:22.147Z,6.25
2019-04-19T07:10:06.729Z,6.10
2019-04-19T07:21:37.077Z,7.18
2019-04-19T07:24:16.331Z,6.47
2019-04-19T07:26:50.678Z,6.05
2019-04-19T07:29:02.152Z,6.40
2019-04-19T07:31:36.510Z,6.00
2019-04-19T07:34:27.054Z,5.85
2019-04-19T07:36:57.781Z,5.55
2019-04-19T07:39:44.319Z,6.30
2019-04-19T07:42:10.879Z,6.85
2019-04-19T07:44:35.189Z,5.55
2019-04-19T07:47:27.687Z,5.43
2019-04-19T07:49:57.264Z,5.30
2019-04-19T07:52:24.855Z,5.35
2019-04-19T07:55:00.525Z,6.00
2019-04-19T08:00:36.891Z,4.90
2019-04-19T08:02:54.870Z,4.87
2019-04-19T08:05:36.766Z,5.07
2019-04-19T08:08:18.505Z,5.45
2019-04-19T08:28:26.403Z,4.80
2019-04-19T08:30:55.524Z,5.63
2019-04-19T08:33:23.685Z,5.67
2019-04-19T08:36:00.903Z,4.60
2019-04-19T08:54:56.123Z,5.07
2019-04-19T08:57:12.502Z,4.93
2019-04-19T08:59:59.324Z,5.40
2019-04-19T09:02:28.867Z,4.73
2019-04-19T09:05:04.816Z,5.00
2019-04-19T09:07:47.286Z,5.20
2019-04-19T09:10:32.016Z,5.70
2019-04-19T09:12:58.803Z,5.23
2019-04-19T09:15:22.689Z,5.57
2019-04-19T09:18:19.888Z,4.80
2019-04-19T09:20:35.902Z,5.00
2019-04-19T09:39:52.362Z,4.80
2019-04-19T09:58:43.065Z,4.63
2019-04-19T10:01:06.392Z,4.63
2019-04-19T10:03:46.945Z,5.00
2019-04-19T10:15:38.899Z,4.60
2019-04-19T10:18:12.588Z,4.80
2019-04-19T10:20:51.780Z,4.60
2019-04-19T10:23:25.463Z,4.23
2019-04-19T10:26:06.010Z,4.50
2019-04-19T10:28:35.383Z,5.00
2019-04-19T10:31:11.486Z,5.00
2019-04-19T10:33:52.438Z,4.63
2019-04-19T10:36:18.776Z,5.77
2019-04-19T10:38:55.827Z,4.97
2019-04-19T10:41:27.188Z,4.40
2019-04-19T10:44:09.978Z,4.80
2019-04-19T10:46:34.678Z,4.63
2019-04-19T10:49:15.525Z,4.47
2019-04-19T10:51:46.567Z,5.10
2019-04-19T10:54:20.238Z,4.80
2019-04-19T10:57:08.223Z,4.13
2019-04-19T10:59:42.623Z,4.03
2019-04-19T11:02:15.846Z,5.00
2019-04-19T11:04:49.315Z,4.50
2019-04-19T11:07:23.477Z,4.20
2019-04-19T11:09:57.735Z,4.27
2019-04-19T11:12:30.539Z,4.60
2019-04-19T11:15:04.463Z,4.23
2019-04-19T11:21:05.243Z,4.53
2019-04-19T11:23:39.734Z,5.20
2019-04-19T11:26:12.715Z,5.23
2019-04-19T11:28:47.062Z,4.80
2019-04-19T11:31:19.648Z,4.90
2019-04-19T11:33:53.312Z,5.17
2019-04-19T11:36:27.049Z,4.93
2019-04-19T11:39:01.407Z,4.67
2019-04-19T11:41:35.084Z,4.67
2019-04-19T11:53:18.818Z,4.60
2019-04-19T11:55:58.346Z,5.47
2019-04-19T11:58:34.250Z,4.87
2019-04-19T12:01:16.617Z,4.83
2019-04-19T12:03:50.240Z,5.00
2019-04-19T12:06:24.669Z,5.17
2019-04-19T12:08:58.455Z,4.67
2019-04-19T12:11:32.471Z,4.60
2019-04-19T12:14:05.932Z,4.20
2019-04-19T12:16:39.351Z,4.27
2019-04-19T12:19:13.955Z,5.03
2019-04-19T12:21:47.584Z,5.07
2019-04-19T12:24:20.554Z,5.27
2019-04-19T12:26:54.011Z,4.53
2019-04-19T12:29:37.633Z,3.97
2019-04-19T12:32:01.419Z,5.47
2019-04-19T12:34:35.072Z,4.50
2019-04-19T12:37:09.118Z,6.40
2019-04-19T12:39:43.228Z,3.73
2019-04-19T12:42:21.918Z,3.80
2019-04-19T12:44:55.523Z,4.27
2019-04-19T12:47:29.149Z,5.73
2019-04-19T12:50:08.639Z,4.27
2019-04-19T12:52:37.970Z,3.97
2019-04-19T12:55:12.217Z,3.80
2019-04-19T12:57:45.752Z,4.33
2019-04-19T13:00:18.364Z,3.57
2019-04-19T13:02:53.936Z,4.20
2019-04-19T13:05:28.977Z,4.27
2019-04-19T13:08:03.240Z,3.53
2019-04-19T13:10:36.211Z,3.90
2019-04-19T13:13:09.936Z,4.60
2019-04-19T13:35:55.177Z,3.58
2019-04-19T13:38:28.495Z,3.50
2019-04-19T13:41:09.090Z,3.17
2019-04-19T13:43:42.728Z,3.47
2019-04-19T13:46:15.351Z,3.37
2019-04-19T13:48:50.493Z,3.30
2019-04-19T13:51:22.836Z,3.50
2019-04-19T13:53:57.084Z,4.00
2019-04-19T13:56:30.928Z,3.50
2019-04-19T13:59:05.512Z,3.53
2019-04-19T14:01:40.647Z,3.10
2019-04-19T14:04:13.587Z,3.50
2019-04-19T14:15:54.978Z,3.12
2019-04-19T14:18:28.895Z,3.00
2019-04-19T14:21:03.173Z,3.30
2019-04-19T14:23:37.424Z,2.63
2019-04-19T14:26:09.922Z,3.10
2019-04-19T14:28:43.604Z,3.10
2019-04-19T14:40:25.708Z,2.83
2019-04-19T14:42:58.339Z,3.13
2019-04-19T14:45:32.392Z,3.80
2019-04-19T14:48:05.106Z,2.90
2019-04-19T14:50:48.580Z,3.30
2019-04-19T14:53:14.257Z,2.60
2019-04-19T14:55:48.365Z,3.23
2019-04-19T14:58:22.707Z,3.13
2019-04-19T15:00:56.941Z,5.53
2019-04-19T15:03:30.759Z,3.03
2019-04-19T15:06:03.905Z,3.00
2019-04-19T15:08:37.467Z,3.10
2019-04-19T15:11:11.774Z,2.70
2019-04-19T15:13:44.916Z,3.30
2019-04-19T15:36:00.165Z,3.10
2019-04-19T15:38:32.249Z,2.67
2019-04-19T15:41:06.192Z,2.73
2019-04-19T15:43:40.370Z,2.83
2019-04-19T15:46:13.502Z,6.80
2019-04-19T15:48:50.212Z,8.07
2019-04-19T15:51:27.137Z,4.70
2019-04-19T15:53:56.389Z,3.33
2019-04-19T15:56:30.004Z,3.47
2019-04-19T15:59:03.035Z,3.30
2019-04-19T16:01:41.892Z,2.93
2019-04-19T16:04:14.395Z,4.77
2019-04-19T16:06:54.285Z,3.50
2019-04-19T16:09:31.281Z,2.70
2019-04-19T16:12:05.884Z,2.50
2019-04-19T16:14:39.910Z,3.23
2019-04-19T16:17:13.537Z,2.80
2019-04-19T16:19:47.038Z,2.90
2019-04-19T16:22:20.233Z,5.03
2019-04-19T16:31:04.408Z,3.22
2019-04-19T16:33:38.291Z,3.43
2019-04-19T16:36:12.756Z,2.77
2019-04-19T16:38:46.779Z,3.97
2019-04-19T16:41:20.139Z,3.33
2019-04-19T16:43:53.895Z,2.57
2019-04-19T16:46:30.304Z,2.37
2019-04-19T16:49:02.339Z,3.13
2019-04-19T16:51:43.771Z,9.30
2019-04-19T16:54:08.515Z,2.70
2019-04-19T16:56:42.207Z,2.87
2019-04-19T16:59:16.170Z,2.50
2019-04-19T17:01:50.605Z,2.60
2019-04-19T17:04:25.671Z,9.03
2019-04-19T17:06:58.494Z,3.03
2019-04-19T17:09:33.013Z,3.20
2019-04-19T17:12:07.560Z,4.07
2019-04-19T17:14:41.040Z,2.93
2019-04-19T17:17:20.442Z,2.57
2019-04-19T17:19:55.043Z,2.37
2019-04-19T17:22:34.701Z,2.97
2019-04-19T17:25:07.583Z,2.90
2019-04-19T17:27:41.161Z,2.63
2019-04-19T17:30:15.485Z,3.27
2019-04-19T17:32:50.188Z,3.40
2019-04-19T17:35:23.920Z,3.10
2019-04-19T17:37:58.235Z,3.03
2019-04-19T17:40:32.303Z,2.57
2019-04-19T17:43:05.500Z,3.27
2019-04-19T17:45:38.406Z,2.93
2019-04-19T17:48:12.692Z,2.97
2019-04-19T17:50:47.940Z,2.33
2019-04-19T17:53:26.386Z,4.00
2019-04-19T17:55:56.821Z,4.70
2019-04-19T17:58:29.607Z,3.50
2019-04-19T18:01:04.121Z,2.90
2019-04-19T18:03:37.387Z,3.50
2019-04-19T18:06:10.210Z,2.77
2019-04-19T18:08:46.261Z,3.00
2019-04-19T18:11:22.641Z,2.73
2019-04-19T18:13:53.163Z,3.07
2019-04-19T18:16:26.928Z,3.67
2019-04-19T18:19:01.905Z,5.47
2019-04-19T18:21:37.377Z,2.93
2019-04-19T18:24:16.739Z,3.00
2019-04-19T18:26:44.185Z,2.63
2019-04-19T18:29:20.388Z,2.57
2019-04-19T18:31:52.686Z,2.70
2019-04-19T18:34:32.687Z,3.08
2019-04-19T18:37:05.118Z,3.07
2019-04-19T18:39:38.189Z,3.10
2019-04-19T18:42:11.499Z,2.72
2019-04-19T18:44:49.972Z,2.87
2019-04-19T18:47:20.836Z,2.85
2019-04-19T18:49:53.841Z,3.37
2019-04-19T18:52:36.731Z,2.90
2019-04-19T18:55:05.715Z,3.45
2019-04-19T18:57:38.280Z,2.95
2019-04-19T19:00:08.231Z,2.78
2019-04-19T19:02:45.842Z,4.40
2019-04-19T19:05:16.636Z,2.60
2019-04-19T19:07:56.275Z,4.00
2019-04-19T19:10:33.386Z,3.00
2019-04-19T19:13:00.258Z,2.72
2019-04-19T19:15:41.879Z,3.72
2019-04-19T19:18:07.586Z,3.70
2019-04-19T19:20:41.614Z,4.32
2019-04-19T19:23:25.736Z,3.30
2019-04-19T19:26:04.869Z,3.28
2019-04-19T19:28:23.811Z,3.22
2019-04-19T19:30:56.713Z,3.58
2019-04-19T19:33:39.096Z,4.00
2019-04-19T19:36:05.029Z,3.53
2019-04-19T19:38:39.946Z,3.70
2019-04-19T19:41:27.696Z,5.82
2019-04-19T19:43:57.757Z,4.00
2019-04-19T19:46:40.251Z,5.25
2019-04-19T19:49:28.916Z,2.80
2019-04-19T19:51:42.253Z,3.08
2019-04-19T19:56:55.498Z,3.37
2019-04-19T19:59:19.176Z,3.65
2019-04-19T20:01:55.005Z,3.58
2019-04-19T20:04:17.090Z,3.95
2019-04-19T20:06:58.186Z,4.18
2019-04-19T20:09:27.761Z,4.12
2019-04-19T20:12:03.956Z,4.93
2019-04-19T20:14:33.653Z,5.20
2019-04-19T20:17:09.325Z,6.00
2019-04-19T20:19:39.275Z,5.35
2019-04-19T20:22:12.574Z,5.18
2019-04-19T20:24:56.241Z,5.25
2019-04-19T20:27:22.599Z,5.72
2019-04-19T20:29:58.806Z,4.10
2019-04-19T20:32:26.668Z,4.82
2019-04-19T20:35:07.986Z,4.72
2019-04-19T20:37:34.838Z,4.37
2019-04-19T20:40:12.006Z,4.10
2019-04-19T20:43:04.601Z,4.80
2019-04-19T20:45:29.210Z,4.75
2019-04-19T20:47:52.633Z,3.90
2019-04-19T20:50:28.054Z,4.45
2019-04-19T20:53:21.954Z,4.10
2019-04-19T20:56:19.822Z,4.37
2019-04-19T20:58:31.103Z,4.55
2019-04-19T21:00:52.542Z,4.32
2019-04-19T21:03:30.808Z,6.57
2019-04-19T21:06:00.004Z,3.60
2019-04-19T21:08:39.653Z,5.10
2019-04-19T21:11:09.463Z,4.25
2019-04-19T21:13:45.866Z,3.80
2019-04-19T21:16:14.369Z,3.97
2019-04-19T21:18:50.317Z,3.40
2019-04-19T21:21:22.635Z,3.85
2019-04-19T21:24:00.475Z,3.60
2019-04-19T21:26:31.746Z,3.37
2019-04-19T21:29:03.469Z,3.03
2019-04-19T21:31:44.075Z,3.33
2019-04-19T21:34:13.418Z,4.18
2019-04-19T21:36:52.493Z,3.28
2019-04-19T21:39:20.077Z,3.03
2019-04-19T21:41:57.253Z,3.10
2019-04-19T21:44:26.797Z,3.50
2019-04-19T21:47:05.857Z,3.33
2019-04-19T21:49:33.224Z,3.35
2019-04-19T21:52:13.703Z,3.65
2019-04-19T21:54:42.134Z,2.97
2019-04-19T21:57:22.608Z,2.65
2019-04-19T21:59:50.316Z,2.90
2019-04-19T22:02:32.038Z,3.87
2019-04-19T22:04:57.408Z,3.40
2019-04-19T22:07:39.222Z,3.10
2019-04-19T22:10:07.448Z,3.22
2019-04-19T22:12:42.665Z,3.37
2019-04-19T22:15:15.685Z,3.22
2019-04-19T22:17:54.421Z,3.50
2019-04-19T22:20:24.574Z,4.25
2019-04-19T22:23:01.604Z,3.40
2019-04-19T22:25:41.079Z,3.28
2019-04-19T22:28:03.549Z,3.72
2019-04-19T22:30:42.376Z,3.30
2019-04-19T22:33:11.018Z,4.78
2019-04-19T22:35:46.987Z,4.18
2019-04-19T22:38:22.194Z,3.30
2019-04-19T22:40:52.622Z,3.67
2019-04-19T22:43:26.849Z,3.83
2019-04-19T22:46:04.756Z,2.70
2019-04-19T22:48:33.705Z,3.12
2019-04-19T22:51:10.809Z,3.45
2019-04-19T22:53:42.965Z,3.80
2019-04-19T22:56:22.919Z,3.20
2019-04-19T22:58:49.459Z,3.05
2019-04-19T23:01:25.085Z,2.67
2019-04-19T23:04:01.233Z,2.80
2019-04-19T23:06:32.407Z,3.65
2019-04-19T23:09:05.162Z,3.22
2019-04-19T23:11:37.973Z,3.90
2019-04-19T23:23:25.603Z,4.22
2019-04-19T23:26:06.213Z,3.55
2019-04-19T23:28:34.018Z,3.45
2019-04-19T23:31:08.830Z,3.30
2019-04-19T23:33:37.739Z,3.17
2019-04-19T23:36:17.185Z,3.83
2019-04-19T23:55:46.747Z,4.85
2019-04-19T23:58:28.659Z,4.35
